aviador You're here:

PAWD Decoded Metar

SEWARD in AK, USA
Report Time2017-12-17 04:53:00
UTC Time2017-12-17 05:58:05
Flight Rules mvfr MVFR
WindCalm
Visibility9999 m
Phenomena:N/A
Clouds:Overcast 010 Hf
Ceiling1,000 ft
Temp00°C (ISA -15)
Dew Point00°C (100% RH)
AAT-2.0°C
QNH991 hPa
Density Alt-899 ft
Elevation75 ft
Report Wrong Elevation
Raw Report
PAWD 170453Z AUTO 00000KT 10SM OVC010 00/00 A2927 RMK AO2 SLP911
T00000000 TSNO=

Extra information for PAWD:More info

Metar Taf Metar & Taf Last 4 Metars F.Rules Stats Wind Profile Meteogram Temp Stats Airport Information Weather charts Add Link Nearby VenuesMetar ALERT Operation Metar Decoded Social comments

AIRNAV info for PAWD